Observations for GROSSETO IT-AFB, Italy (LIRS)

LIRS 181355Z 24011KT 9999 FEW025 21/11 Q1021
LIRS 181355Z 24011KT 9999 FEW025 21/11 Q1021 RMK BKN BKN200 VIS MIN 9999 WIND THR03 24012KT WIND THR21 24011KT BLU
LIRS 181255Z 23012KT 9999 FEW025 21/08 Q1021
LIRS 181255Z 23012KT 9999 FEW025 21/08 Q1021 RMK BKN BKN200 VIS MIN 9999 WIND THR03 25011KT WIND THR21 24011KT BLU
LIRS 181155Z 23011KT 9999 FEW025 23/07 Q1021
LIRS 181155Z 23011KT 9999 FEW025 23/07 Q1021 RMK FEW VIS MIN 9999 WIND THR03 23012KT WIND THR21 24009KT BLU
LIRS 181055Z 06004KT 9999 FEW025 24/05 Q1021
LIRS 181055Z 06004KT 9999 FEW025 24/05 Q1021 RMK FEW VIS MIN 9999 WIND THR03 24003KT WIND THR21 08009KT BLU
LIRS 180955Z 18002KT CAVOK 23/05 Q1021  
LIRS 180955Z 18002KT CAVOK 23/05 Q1021 RMK FEW FEW200 VIS MIN 9999 WIND THR03 07002KT WIND THR21 VRB03KT BLU
LIRS 180855Z 05003KT CAVOK 21/06 Q1021  
LIRS 180855Z 05003KT CAVOK 21/06 Q1021 RMK FEW FEW200 VIS MIN 9999 WIND THR03 04002KT WIND THR21 28002KT BLU
LIRS 180755Z 04004KT CAVOK 18/09 Q1021  
LIRS 180755Z 04004KT CAVOK 18/09 Q1021 RMK SKC VIS MIN 9999 WIND THR03 05005KT WIND THR21 08002KT BLU
LIRS 180655Z 06003KT CAVOK 14/08 Q1021  
LIRS 180655Z 06003KT CAVOK 14/08 Q1021 RMK FEW FEW200 VIS MIN 9999 WIND THR03 07003KT WIND THR21 11002KT BLU
LIRS 180555Z 06004KT CAVOK 10/08 Q1021  
LIRS 180555Z 06004KT CAVOK 10/08 Q1021 RMK FEW FEW200 VIS MIN 9999 WIND THR03 06005KT WIND THR21 08005KT BLU
LIRS 180455Z 04005KT CAVOK 07/05 Q1021  
LIRS 180455Z 04005KT CAVOK 07/05 Q1021 RMK SKC VIS MIN 9999 WIND THR03 04005KT WIND THR21 04004KT BLU
LIRS 180355Z 04003KT CAVOK 07/06 Q1020  
LIRS 180355Z 04003KT CAVOK 07/06 Q1020 RMK FEW FEW200 VIS MIN 9999 WIND THR03 03003KT WIND THR21 05002KT BLU
LIRS 180255Z 10002KT CAVOK 10/08 Q1021  
LIRS 180255Z 10002KT CAVOK 10/08 Q1021 RMK SKC VIS MIN 9999 WIND THR03 08003KT WIND THR21 08002KT BLU
LIRS 180155Z 07004KT CAVOK 10/09 Q1022  
LIRS 180155Z 07004KT CAVOK 10/09 Q1022 RMK SKC VIS MIN 9999 WIND THR03 08005KT WIND THR21 09004KT BLU
LIRS 180055Z 03004KT CAVOK 10/09 Q1022  
LIRS 180055Z 03004KT CAVOK 10/09 Q1022 RMK SKC VIS MIN 9999 WIND THR03 06003KT WIND THR21 05002KT BLU
LIRS 172355Z 04005KT CAVOK 10/09 Q1021  
LIRS 172355Z 04005KT CAVOK 10/09 Q1021 RMK SKC VIS MIN 9999 WIND THR03 04006KT WIND THR21 06004KT BLU
LIRS 172255Z 34003KT CAVOK 10/08 Q1020  
LIRS 172255Z 34003KT CAVOK 10/08 Q1020 RMK SKC VIS MIN 9999 WIND THR03 35004KT WIND THR21 34003KT BLU
LIRS 172155Z 04005KT CAVOK 10/09 Q1020  
LIRS 172155Z 04005KT CAVOK 10/09 Q1020 RMK FEW FEW200 VIS MIN 9999 WIND THR03 05004KT WIND THR21 04004KT BLU
LIRS 172055Z 02004KT CAVOK 11/09 Q1020  
LIRS 172055Z 02004KT CAVOK 11/09 Q1020 RMK FEW FEW180 VIS MIN 9999 WIND THR03 04002KT WIND THR21 03004KT BLU
LIRS 171955Z 11004KT CAVOK 13/10 Q1020  
LIRS 171955Z 11004KT CAVOK 13/10 Q1020 RMK SCT FEW080 VIS MIN 9999 WIND THR03 12003KT WIND THR21 13002KT BLU
LIRS 171855Z 12004KT CAVOK 13/09 Q1019  
LIRS 171855Z 12004KT CAVOK 13/09 Q1019 RMK FEW FEW090 VIS MIN 9999 WIND THR03 13004KT WIND THR21 14003KT BLU
LIRS 171755Z 24004KT CAVOK 16/11 Q1018  
LIRS 171755Z 24004KT CAVOK 16/11 Q1018 RMK FEW FEW090 VIS MIN 9999 WIND THR03 05005KT WIND THR21 23003KT BLU
LIRS 171655Z 25008KT 9999 FEW040 19/11 Q1018
LIRS 171655Z 25008KT 9999 FEW040 19/11 Q1018 RMK SCT SCT080 VIS MIN 9999 WIND THR03 27008KT WIND THR21 27007KT BLU
LIRS 171555Z 25011KT CAVOK 20/10 Q1018  
LIRS 171555Z 25011KT CAVOK 20/10 Q1018 RMK FEW FEW070 VIS MIN 9999 WIND THR03 26010KT WIND THR21 24009KT BLU
LIRS 171455Z 25009KT CAVOK 22/12 Q1019  
LIRS 171455Z 25009KT CAVOK 22/12 Q1019 RMK SCT FEW080 VIS MIN 9999 WIND THR03 25010KT WIND THR21 24010KT BLU
LIRS 171355Z 23011KT 9999 FEW030 SCT060 21/11 Q1019 
LIRS 171355Z 23011KT 9999 FEW030 SCT060 21/11 Q1019 RMK SCT VIS MIN 9999 WIND THR03 25010KT WIND THR21 24010KT BLU